sensor_id;sensor_type;location;lat;lon;timestamp;P1;durP1;ratioP1;P2;durP2;ratioP2
26102;SDS011;32703;49.182;9.042;2022-08-01T00:02:04;1.45;;;1.05;;
26102;SDS011;32703;49.182;9.042;2022-08-01T00:04:30;1.40;;;1.10;;
26102;SDS011;32703;49.182;9.042;2022-08-01T00:06:55;2.45;;;1.30;;
26102;SDS011;32703;49.182;9.042;2022-08-01T00:09:21;1.13;;;1.02;;
26102;SDS011;32703;49.182;9.042;2022-08-01T00:11:46;1.27;;;1.10;;
26102;SDS011;32703;49.182;9.042;2022-08-01T00:14:12;1.73;;;1.13;;
26102;SDS011;32703;49.182;9.042;2022-08-01T00:16:37;1.45;;;1.00;;
26102;SDS011;32703;49.182;9.042;2022-08-01T00:19:03;1.80;;;1.20;;
26102;SDS011;32703;49.182;9.042;2022-08-01T00:21:29;1.98;;;1.33;;
26102;SDS011;32703;49.182;9.042;2022-08-01T00:23:54;1.30;;;1.10;;
26102;SDS011;32703;49.182;9.042;2022-08-01T00:26:20;1.83;;;1.27;;
26102;SDS011;32703;49.182;9.042;2022-08-01T00:28:45;2.17;;;1.10;;
26102;SDS011;32703;49.182;9.042;2022-08-01T00:31:11;1.88;;;1.10;;
26102;SDS011;32703;49.182;9.042;2022-08-01T00:33:36;1.25;;;1.10;;
26102;SDS011;32703;49.182;9.042;2022-08-01T00:36:02;1.98;;;1.00;;
26102;SDS011;32703;49.182;9.042;2022-08-01T00:38:28;1.73;;;1.23;;
26102;SDS011;32703;49.182;9.042;2022-08-01T00:40:54;2.55;;;1.48;;
26102;SDS011;32703;49.182;9.042;2022-08-01T00:43:19;2.42;;;1.35;;
26102;SDS011;32703;49.182;9.042;2022-08-01T00:45:45;2.28;;;1.23;;
26102;SDS011;32703;49.182;9.042;2022-08-01T00:48:10;1.10;;;1.00;;
26102;SDS011;32703;49.182;9.042;2022-08-01T00:50:36;1.63;;;1.20;;
26102;SDS011;32703;49.182;9.042;2022-08-01T00:53:02;1.38;;;1.02;;
26102;SDS011;32703;49.182;9.042;2022-08-01T00:55:28;1.33;;;1.13;;
26102;SDS011;32703;49.182;9.042;2022-08-01T00:57:54;1.40;;;1.30;;
26102;SDS011;32703;49.182;9.042;2022-08-01T01:00:22;2.42;;;1.40;;
26102;SDS011;32703;49.182;9.042;2022-08-01T01:02:48;2.55;;;1.48;;
26102;SDS011;32703;49.182;9.042;2022-08-01T01:05:14;2.00;;;1.20;;
26102;SDS011;32703;49.182;9.042;2022-08-01T01:10:12;1.88;;;1.27;;
26102;SDS011;32703;49.182;9.042;2022-08-01T01:12:47;3.20;;;1.48;;
26102;SDS011;32703;49.182;9.042;2022-08-01T01:15:23;1.30;;;1.15;;
26102;SDS011;32703;49.182;9.042;2022-08-01T01:17:57;1.73;;;1.20;;
26102;SDS011;32703;49.182;9.042;2022-08-01T01:20:40;1.17;;;1.08;;
26102;SDS011;32703;49.182;9.042;2022-08-01T01:31:27;2.25;;;1.63;;
26102;SDS011;32703;49.182;9.042;2022-08-01T01:33:55;1.13;;;1.00;;
26102;SDS011;32703;49.182;9.042;2022-08-01T01:36:24;2.28;;;1.50;;
26102;SDS011;32703;49.182;9.042;2022-08-01T01:38:52;1.88;;;1.30;;
26102;SDS011;32703;49.182;9.042;2022-08-01T01:41:19;1.90;;;1.30;;
26102;SDS011;32703;49.182;9.042;2022-08-01T01:43:46;1.77;;;1.08;;
26102;SDS011;32703;49.182;9.042;2022-08-01T01:46:13;2.20;;;1.27;;
26102;SDS011;32703;49.182;9.042;2022-08-01T01:48:43;1.60;;;1.00;;
26102;SDS011;32703;49.182;9.042;2022-08-01T01:51:10;1.33;;;1.10;;
26102;SDS011;32703;49.182;9.042;2022-08-01T01:53:37;1.80;;;1.35;;
26102;SDS011;32703;49.182;9.042;2022-08-01T01:56:04;1.77;;;1.33;;
26102;SDS011;32703;49.182;9.042;2022-08-01T01:58:31;1.80;;;1.40;;
26102;SDS011;32703;49.182;9.042;2022-08-01T02:00:59;2.65;;;1.20;;
26102;SDS011;32703;49.182;9.042;2022-08-01T02:03:26;1.83;;;1.40;;
26102;SDS011;32703;49.182;9.042;2022-08-01T02:05:53;4.05;;;1.42;;
26102;SDS011;32703;49.182;9.042;2022-08-01T02:08:20;1.60;;;1.00;;
26102;SDS011;32703;49.182;9.042;2022-08-01T02:10:48;2.08;;;1.52;;
26102;SDS011;32703;49.182;9.042;2022-08-01T02:13:36;1.70;;;1.08;;
26102;SDS011;32703;49.182;9.042;2022-08-01T02:16:03;1.55;;;1.15;;
26102;SDS011;32703;49.182;9.042;2022-08-01T02:18:30;2.00;;;1.42;;
26102;SDS011;32703;49.182;9.042;2022-08-01T02:20:56;1.40;;;1.20;;
26102;SDS011;32703;49.182;9.042;2022-08-01T02:23:28;2.00;;;1.20;;
26102;SDS011;32703;49.182;9.042;2022-08-01T02:25:57;2.17;;;1.50;;
26102;SDS011;32703;49.182;9.042;2022-08-01T02:28:28;2.33;;;1.50;;
26102;SDS011;32703;49.182;9.042;2022-08-01T02:31:00;1.92;;;1.40;;
26102;SDS011;32703;49.182;9.042;2022-08-01T02:33:33;1.88;;;1.13;;
26102;SDS011;32703;49.182;9.042;2022-08-01T02:36:02;2.50;;;1.35;;
26102;SDS011;32703;49.182;9.042;2022-08-01T02:38:30;2.05;;;1.30;;
26102;SDS011;32703;49.182;9.042;2022-08-01T02:40:59;2.25;;;1.60;;
26102;SDS011;32703;49.182;9.042;2022-08-01T02:43:30;2.67;;;1.30;;
26102;SDS011;32703;49.182;9.042;2022-08-01T02:45:59;1.25;;;0.93;;
26102;SDS011;32703;49.182;9.042;2022-08-01T02:48:27;2.25;;;1.40;;
26102;SDS011;32703;49.182;9.042;2022-08-01T02:50:55;3.03;;;1.50;;
26102;SDS011;32703;49.182;9.042;2022-08-01T02:53:24;2.15;;;1.38;;
26102;SDS011;32703;49.182;9.042;2022-08-01T02:55:52;1.60;;;1.17;;
26102;SDS011;32703;49.182;9.042;2022-08-01T02:58:19;1.83;;;1.20;;
26102;SDS011;32703;49.182;9.042;2022-08-01T03:00:48;1.52;;;1.33;;
26102;SDS011;32703;49.182;9.042;2022-08-01T03:03:14;1.83;;;1.10;;
26102;SDS011;32703;49.182;9.042;2022-08-01T03:05:41;1.85;;;1.20;;
26102;SDS011;32703;49.182;9.042;2022-08-01T03:08:08;2.00;;;1.30;;
26102;SDS011;32703;49.182;9.042;2022-08-01T03:10:36;1.52;;;1.20;;
26102;SDS011;32703;49.182;9.042;2022-08-01T03:13:04;2.22;;;1.35;;
26102;SDS011;32703;49.182;9.042;2022-08-01T03:15:34;2.65;;;1.60;;
26102;SDS011;32703;49.182;9.042;2022-08-01T03:18:02;2.45;;;1.50;;
26102;SDS011;32703;49.182;9.042;2022-08-01T03:20:30;3.47;;;1.80;;
26102;SDS011;32703;49.182;9.042;2022-08-01T03:22:57;2.22;;;1.30;;
26102;SDS011;32703;49.182;9.042;2022-08-01T03:25:26;1.65;;;1.30;;
26102;SDS011;32703;49.182;9.042;2022-08-01T03:27:55;1.88;;;1.17;;
26102;SDS011;32703;49.182;9.042;2022-08-01T03:30:23;1.50;;;1.23;;
26102;SDS011;32703;49.182;9.042;2022-08-01T03:32:51;1.55;;;1.20;;
26102;SDS011;32703;49.182;9.042;2022-08-01T03:35:17;3.33;;;1.30;;
26102;SDS011;32703;49.182;9.042;2022-08-01T03:37:46;1.50;;;1.13;;
26102;SDS011;32703;49.182;9.042;2022-08-01T03:40:22;1.98;;;1.45;;
26102;SDS011;32703;49.182;9.042;2022-08-01T03:42:53;2.60;;;1.58;;
26102;SDS011;32703;49.182;9.042;2022-08-01T03:45:31;1.55;;;1.23;;
26102;SDS011;32703;49.182;9.042;2022-08-01T03:48:10;2.20;;;1.20;;
26102;SDS011;32703;49.182;9.042;2022-08-01T03:50:43;2.40;;;1.30;;
26102;SDS011;32703;49.182;9.042;2022-08-01T03:53:13;1.83;;;1.35;;
26102;SDS011;32703;49.182;9.042;2022-08-01T03:55:39;2.63;;;1.42;;
26102;SDS011;32703;49.182;9.042;2022-08-01T03:58:07;1.77;;;1.20;;
26102;SDS011;32703;49.182;9.042;2022-08-01T04:00:33;2.35;;;1.30;;
26102;SDS011;32703;49.182;9.042;2022-08-01T04:03:04;1.95;;;1.30;;
26102;SDS011;32703;49.182;9.042;2022-08-01T04:05:34;1.65;;;1.20;;
26102;SDS011;32703;49.182;9.042;2022-08-01T04:08:00;1.77;;;1.23;;
26102;SDS011;32703;49.182;9.042;2022-08-01T04:10:27;2.28;;;1.20;;
26102;SDS011;32703;49.182;9.042;2022-08-01T04:12:53;3.78;;;1.60;;
26102;SDS011;32703;49.182;9.042;2022-08-01T04:15:19;1.60;;;1.17;;
26102;SDS011;32703;49.182;9.042;2022-08-01T04:17:45;2.08;;;1.40;;
26102;SDS011;32703;49.182;9.042;2022-08-01T04:20:11;1.75;;;0.98;;
26102;SDS011;32703;49.182;9.042;2022-08-01T04:22:37;2.00;;;1.30;;
26102;SDS011;32703;49.182;9.042;2022-08-01T04:25:04;2.15;;;1.42;;
26102;SDS011;32703;49.182;9.042;2022-08-01T04:27:35;2.45;;;1.33;;
26102;SDS011;32703;49.182;9.042;2022-08-01T04:30:04;1.70;;;1.17;;
26102;SDS011;32703;49.182;9.042;2022-08-01T04:32:33;2.83;;;1.50;;
26102;SDS011;32703;49.182;9.042;2022-08-01T04:35:02;1.10;;;0.93;;
26102;SDS011;32703;49.182;9.042;2022-08-01T04:37:30;1.70;;;1.13;;
26102;SDS011;32703;49.182;9.042;2022-08-01T04:39:56;4.13;;;1.30;;
26102;SDS011;32703;49.182;9.042;2022-08-01T04:42:24;1.15;;;1.02;;
26102;SDS011;32703;49.182;9.042;2022-08-01T04:44:49;1.50;;;1.13;;
26102;SDS011;32703;49.182;9.042;2022-08-01T04:47:16;2.20;;;1.20;;
26102;SDS011;32703;49.182;9.042;2022-08-01T04:49:42;1.83;;;1.42;;
26102;SDS011;32703;49.182;9.042;2022-08-01T04:52:10;1.92;;;1.35;;
26102;SDS011;32703;49.182;9.042;2022-08-01T04:54:36;1.60;;;1.13;;
26102;SDS011;32703;49.182;9.042;2022-08-01T04:57:02;1.42;;;1.20;;
26102;SDS011;32703;49.182;9.042;2022-08-01T04:59:29;2.42;;;1.60;;
26102;SDS011;32703;49.182;9.042;2022-08-01T05:02:08;1.58;;;1.20;;
26102;SDS011;32703;49.182;9.042;2022-08-01T05:04:36;1.42;;;1.08;;
26102;SDS011;32703;49.182;9.042;2022-08-01T05:07:03;3.60;;;1.17;;
26102;SDS011;32703;49.182;9.042;2022-08-01T05:09:29;1.88;;;1.20;;
26102;SDS011;32703;49.182;9.042;2022-08-01T05:11:55;3.03;;;1.38;;
26102;SDS011;32703;49.182;9.042;2022-08-01T05:14:23;2.30;;;1.40;;
26102;SDS011;32703;49.182;9.042;2022-08-01T05:16:52;4.25;;;1.48;;
26102;SDS011;32703;49.182;9.042;2022-08-01T05:19:18;1.45;;;1.33;;
26102;SDS011;32703;49.182;9.042;2022-08-01T05:21:44;1.45;;;1.02;;
26102;SDS011;32703;49.182;9.042;2022-08-01T05:24:09;6.18;;;1.70;;
26102;SDS011;32703;49.182;9.042;2022-08-01T05:26:35;1.92;;;1.10;;
26102;SDS011;32703;49.182;9.042;2022-08-01T05:29:01;3.13;;;0.90;;
26102;SDS011;32703;49.182;9.042;2022-08-01T05:31:27;3.83;;;1.67;;
26102;SDS011;32703;49.182;9.042;2022-08-01T05:33:53;1.73;;;1.30;;
26102;SDS011;32703;49.182;9.042;2022-08-01T05:36:18;2.13;;;1.63;;
26102;SDS011;32703;49.182;9.042;2022-08-01T05:38:44;1.90;;;1.38;;
26102;SDS011;32703;49.182;9.042;2022-08-01T05:41:10;1.88;;;1.35;;
26102;SDS011;32703;49.182;9.042;2022-08-01T05:43:36;3.58;;;1.80;;
26102;SDS011;32703;49.182;9.042;2022-08-01T05:46:01;2.15;;;1.20;;
26102;SDS011;32703;49.182;9.042;2022-08-01T05:48:27;1.50;;;1.20;;
26102;SDS011;32703;49.182;9.042;2022-08-01T05:50:53;2.78;;;1.23;;
26102;SDS011;32703;49.182;9.042;2022-08-01T05:53:19;3.92;;;1.40;;
26102;SDS011;32703;49.182;9.042;2022-08-01T05:55:44;1.90;;;1.23;;
26102;SDS011;32703;49.182;9.042;2022-08-01T05:58:10;1.70;;;1.27;;
26102;SDS011;32703;49.182;9.042;2022-08-01T06:00:36;1.90;;;1.08;;
26102;SDS011;32703;49.182;9.042;2022-08-01T06:03:01;2.83;;;1.50;;
26102;SDS011;32703;49.182;9.042;2022-08-01T06:05:27;2.15;;;1.30;;
26102;SDS011;32703;49.182;9.042;2022-08-01T06:07:53;5.53;;;1.40;;
26102;SDS011;32703;49.182;9.042;2022-08-01T06:10:18;4.15;;;1.70;;
26102;SDS011;32703;49.182;9.042;2022-08-01T06:12:44;4.78;;;1.40;;
26102;SDS011;32703;49.182;9.042;2022-08-01T06:15:10;3.35;;;1.27;;
26102;SDS011;32703;49.182;9.042;2022-08-01T06:17:35;5.82;;;1.80;;
26102;SDS011;32703;49.182;9.042;2022-08-01T06:20:01;2.08;;;1.35;;
26102;SDS011;32703;49.182;9.042;2022-08-01T06:22:27;1.88;;;1.10;;
26102;SDS011;32703;49.182;9.042;2022-08-01T06:24:53;3.28;;;1.80;;
26102;SDS011;32703;49.182;9.042;2022-08-01T06:27:19;5.72;;;1.13;;
26102;SDS011;32703;49.182;9.042;2022-08-01T06:29:44;1.42;;;0.95;;
26102;SDS011;32703;49.182;9.042;2022-08-01T06:32:10;2.38;;;1.08;;
26102;SDS011;32703;49.182;9.042;2022-08-01T06:34:35;1.33;;;0.90;;
26102;SDS011;32703;49.182;9.042;2022-08-01T06:37:01;1.55;;;1.02;;
26102;SDS011;32703;49.182;9.042;2022-08-01T06:39:27;1.38;;;1.10;;
26102;SDS011;32703;49.182;9.042;2022-08-01T06:41:52;1.50;;;1.20;;
26102;SDS011;32703;49.182;9.042;2022-08-01T06:44:18;1.77;;;1.00;;
26102;SDS011;32703;49.182;9.042;2022-08-01T06:46:43;1.58;;;1.15;;
26102;SDS011;32703;49.182;9.042;2022-08-01T06:49:09;2.03;;;1.02;;
26102;SDS011;32703;49.182;9.042;2022-08-01T06:51:34;1.42;;;1.17;;
26102;SDS011;32703;49.182;9.042;2022-08-01T06:54:00;2.25;;;1.15;;
26102;SDS011;32703;49.182;9.042;2022-08-01T06:56:25;1.63;;;1.02;;
26102;SDS011;32703;49.182;9.042;2022-08-01T06:58:51;1.45;;;1.10;;
26102;SDS011;32703;49.182;9.042;2022-08-01T07:01:17;1.65;;;1.20;;
26102;SDS011;32703;49.182;9.042;2022-08-01T07:03:42;1.33;;;1.20;;
26102;SDS011;32703;49.182;9.042;2022-08-01T07:06:08;1.55;;;1.20;;
26102;SDS011;32703;49.182;9.042;2022-08-01T07:08:34;3.78;;;1.38;;
26102;SDS011;32703;49.182;9.042;2022-08-01T07:11:00;1.65;;;1.17;;
26102;SDS011;32703;49.182;9.042;2022-08-01T07:13:26;2.03;;;1.45;;
26102;SDS011;32703;49.182;9.042;2022-08-01T07:15:52;1.85;;;1.00;;
26102;SDS011;32703;49.182;9.042;2022-08-01T07:18:18;2.20;;;1.25;;
26102;SDS011;32703;49.182;9.042;2022-08-01T07:20:43;2.28;;;1.20;;
26102;SDS011;32703;49.182;9.042;2022-08-01T07:23:11;1.52;;;0.88;;
26102;SDS011;32703;49.182;9.042;2022-08-01T07:25:37;1.95;;;0.70;;
26102;SDS011;32703;49.182;9.042;2022-08-01T07:28:02;1.15;;;0.90;;
26102;SDS011;32703;49.182;9.042;2022-08-01T07:30:28;1.08;;;0.98;;
26102;SDS011;32703;49.182;9.042;2022-08-01T07:32:54;1.92;;;0.90;;
26102;SDS011;32703;49.182;9.042;2022-08-01T07:35:19;1.20;;;0.80;;
26102;SDS011;32703;49.182;9.042;2022-08-01T07:37:45;1.02;;;0.80;;
26102;SDS011;32703;49.182;9.042;2022-08-01T07:40:11;1.10;;;0.82;;
26102;SDS011;32703;49.182;9.042;2022-08-01T07:42:37;1.55;;;0.70;;
26102;SDS011;32703;49.182;9.042;2022-08-01T07:45:03;1.52;;;0.95;;
26102;SDS011;32703;49.182;9.042;2022-08-01T07:47:29;2.22;;;1.33;;
26102;SDS011;32703;49.182;9.042;2022-08-01T07:50:01;2.60;;;0.90;;
26102;SDS011;32703;49.182;9.042;2022-08-01T07:52:28;2.03;;;0.90;;
26102;SDS011;32703;49.182;9.042;2022-08-01T07:54:55;1.20;;;1.00;;
26102;SDS011;32703;49.182;9.042;2022-08-01T07:57:21;0.88;;;0.70;;
26102;SDS011;32703;49.182;9.042;2022-08-01T07:59:47;0.68;;;0.63;;
26102;SDS011;32703;49.182;9.042;2022-08-01T08:02:12;1.63;;;0.85;;
26102;SDS011;32703;49.182;9.042;2022-08-01T08:04:38;1.38;;;0.85;;
26102;SDS011;32703;49.182;9.042;2022-08-01T08:07:03;2.88;;;0.70;;
26102;SDS011;32703;49.182;9.042;2022-08-01T08:09:29;0.77;;;0.70;;
26102;SDS011;32703;49.182;9.042;2022-08-01T08:11:55;0.98;;;0.68;;
26102;SDS011;32703;49.182;9.042;2022-08-01T08:14:20;0.82;;;0.60;;
26102;SDS011;32703;49.182;9.042;2022-08-01T08:16:47;1.23;;;0.70;;
26102;SDS011;32703;49.182;9.042;2022-08-01T08:19:13;0.90;;;0.60;;
26102;SDS011;32703;49.182;9.042;2022-08-01T08:21:39;1.02;;;0.80;;
26102;SDS011;32703;49.182;9.042;2022-08-01T08:24:05;0.80;;;0.70;;
26102;SDS011;32703;49.182;9.042;2022-08-01T08:26:49;1.05;;;0.80;;
26102;SDS011;32703;49.182;9.042;2022-08-01T08:29:19;3.22;;;0.80;;
26102;SDS011;32703;49.182;9.042;2022-08-01T08:31:46;1.00;;;0.60;;
26102;SDS011;32703;49.182;9.042;2022-08-01T08:34:15;1.33;;;1.00;;
26102;SDS011;32703;49.182;9.042;2022-08-01T08:36:41;0.82;;;0.73;;
26102;SDS011;32703;49.182;9.042;2022-08-01T08:39:07;1.75;;;0.70;;
26102;SDS011;32703;49.182;9.042;2022-08-01T08:41:33;1.02;;;0.82;;
26102;SDS011;32703;49.182;9.042;2022-08-01T08:44:00;1.35;;;0.88;;
26102;SDS011;32703;49.182;9.042;2022-08-01T08:46:27;1.58;;;0.90;;
26102;SDS011;32703;49.182;9.042;2022-08-01T08:48:57;0.88;;;0.60;;
26102;SDS011;32703;49.182;9.042;2022-08-01T08:51:25;2.08;;;0.90;;
26102;SDS011;32703;49.182;9.042;2022-08-01T08:53:55;1.20;;;1.02;;
26102;SDS011;32703;49.182;9.042;2022-08-01T08:56:21;2.22;;;0.75;;
26102;SDS011;32703;49.182;9.042;2022-08-01T08:58:49;0.85;;;0.70;;
26102;SDS011;32703;49.182;9.042;2022-08-01T09:01:18;2.05;;;0.90;;
26102;SDS011;32703;49.182;9.042;2022-08-01T09:03:44;1.25;;;0.90;;
26102;SDS011;32703;49.182;9.042;2022-08-01T09:06:10;2.28;;;0.90;;
26102;SDS011;32703;49.182;9.042;2022-08-01T09:08:36;3.17;;;1.30;;
26102;SDS011;32703;49.182;9.042;2022-08-01T09:11:02;1.83;;;0.90;;
26102;SDS011;32703;49.182;9.042;2022-08-01T09:13:28;1.60;;;1.05;;
26102;SDS011;32703;49.182;9.042;2022-08-01T09:15:54;0.70;;;0.70;;
26102;SDS011;32703;49.182;9.042;2022-08-01T09:18:28;1.83;;;0.95;;
26102;SDS011;32703;49.182;9.042;2022-08-01T09:21:12;1.33;;;0.90;;
26102;SDS011;32703;49.182;9.042;2022-08-01T09:23:41;1.25;;;0.80;;
26102;SDS011;32703;49.182;9.042;2022-08-01T09:26:13;1.17;;;0.73;;
26102;SDS011;32703;49.182;9.042;2022-08-01T09:28:43;0.80;;;0.70;;
26102;SDS011;32703;49.182;9.042;2022-08-01T09:31:14;1.00;;;0.80;;
26102;SDS011;32703;49.182;9.042;2022-08-01T09:33:47;1.15;;;0.80;;
26102;SDS011;32703;49.182;9.042;2022-08-01T09:36:17;1.23;;;0.90;;
26102;SDS011;32703;49.182;9.042;2022-08-01T09:38:52;0.95;;;0.60;;
26102;SDS011;32703;49.182;9.042;2022-08-01T09:41:37;0.63;;;0.60;;
26102;SDS011;32703;49.182;9.042;2022-08-01T09:44:03;1.23;;;0.80;;
26102;SDS011;32703;49.182;9.042;2022-08-01T09:46:28;0.90;;;0.73;;
26102;SDS011;32703;49.182;9.042;2022-08-01T09:48:55;3.85;;;0.80;;
26102;SDS011;32703;49.182;9.042;2022-08-01T09:51:28;2.38;;;0.90;;
26102;SDS011;32703;49.182;9.042;2022-08-01T09:53:55;1.10;;;0.80;;
26102;SDS011;32703;49.182;9.042;2022-08-01T09:56:22;2.00;;;0.95;;
26102;SDS011;32703;49.182;9.042;2022-08-01T09:58:49;1.02;;;0.70;;
26102;SDS011;32703;49.182;9.042;2022-08-01T10:01:15;1.20;;;0.95;;
26102;SDS011;32703;49.182;9.042;2022-08-01T10:03:41;1.17;;;0.80;;
26102;SDS011;32703;49.182;9.042;2022-08-01T10:06:19;1.17;;;0.90;;
26102;SDS011;32703;49.182;9.042;2022-08-01T10:08:46;1.00;;;0.55;;
26102;SDS011;32703;49.182;9.042;2022-08-01T10:11:22;0.70;;;0.60;;
26102;SDS011;32703;49.182;9.042;2022-08-01T10:13:49;1.20;;;0.70;;
26102;SDS011;32703;49.182;9.042;2022-08-01T10:16:14;1.48;;;0.73;;
26102;SDS011;32703;49.182;9.042;2022-08-01T10:18:41;0.60;;;0.60;;
26102;SDS011;32703;49.182;9.042;2022-08-01T10:21:08;0.70;;;0.70;;
26102;SDS011;32703;49.182;9.042;2022-08-01T10:23:35;2.28;;;0.70;;
26102;SDS011;32703;49.182;9.042;2022-08-01T10:26:02;2.10;;;0.80;;
26102;SDS011;32703;49.182;9.042;2022-08-01T10:28:34;1.35;;;0.70;;
26102;SDS011;32703;49.182;9.042;2022-08-01T10:31:01;1.05;;;0.60;;
26102;SDS011;32703;49.182;9.042;2022-08-01T10:33:28;1.38;;;0.85;;
26102;SDS011;32703;49.182;9.042;2022-08-01T10:35:54;0.80;;;0.68;;
26102;SDS011;32703;49.182;9.042;2022-08-01T10:38:20;1.05;;;0.82;;
26102;SDS011;32703;49.182;9.042;2022-08-01T10:40:48;0.77;;;0.47;;
26102;SDS011;32703;49.182;9.042;2022-08-01T10:43:14;1.60;;;0.80;;
26102;SDS011;32703;49.182;9.042;2022-08-01T10:45:42;1.52;;;0.70;;
26102;SDS011;32703;49.182;9.042;2022-08-01T10:50:46;0.57;;;0.57;;
26102;SDS011;32703;49.182;9.042;2022-08-01T10:53:16;1.38;;;0.82;;
26102;SDS011;32703;49.182;9.042;2022-08-01T10:58:24;1.25;;;0.70;;
26102;SDS011;32703;49.182;9.042;2022-08-01T11:04:04;1.00;;;0.70;;
26102;SDS011;32703;49.182;9.042;2022-08-01T11:11:56;0.82;;;0.65;;
26102;SDS011;32703;49.182;9.042;2022-08-01T11:14:22;0.50;;;0.50;;
26102;SDS011;32703;49.182;9.042;2022-08-01T11:16:47;0.70;;;0.50;;
26102;SDS011;32703;49.182;9.042;2022-08-01T11:19:14;1.30;;;0.60;;
26102;SDS011;32703;49.182;9.042;2022-08-01T11:32:56;0.70;;;0.60;;
26102;SDS011;32703;49.182;9.042;2022-08-01T11:35:21;1.13;;;0.77;;
26102;SDS011;32703;49.182;9.042;2022-08-01T11:37:49;0.98;;;0.70;;
26102;SDS011;32703;49.182;9.042;2022-08-01T11:40:23;0.60;;;0.60;;
26102;SDS011;32703;49.182;9.042;2022-08-01T11:45:53;3.15;;;0.80;;
26102;SDS011;32703;49.182;9.042;2022-08-01T11:48:22;1.05;;;0.65;;
26102;SDS011;32703;49.182;9.042;2022-08-01T11:50:52;0.85;;;0.70;;
26102;SDS011;32703;49.182;9.042;2022-08-01T11:53:19;0.50;;;0.50;;
26102;SDS011;32703;49.182;9.042;2022-08-01T11:55:45;1.98;;;0.70;;
26102;SDS011;32703;49.182;9.042;2022-08-01T11:58:13;1.08;;;1.00;;
26102;SDS011;32703;49.182;9.042;2022-08-01T12:00:41;0.98;;;0.70;;
26102;SDS011;32703;49.182;9.042;2022-08-01T12:03:14;0.82;;;0.63;;
26102;SDS011;32703;49.182;9.042;2022-08-01T12:05:40;0.60;;;0.60;;
26102;SDS011;32703;49.182;9.042;2022-08-01T12:08:09;1.52;;;0.77;;
26102;SDS011;32703;49.182;9.042;2022-08-01T12:10:38;1.48;;;0.80;;
26102;SDS011;32703;49.182;9.042;2022-08-01T12:13:05;0.77;;;0.70;;
26102;SDS011;32703;49.182;9.042;2022-08-01T12:15:35;1.33;;;0.80;;
26102;SDS011;32703;49.182;9.042;2022-08-01T12:18:03;1.05;;;0.80;;
26102;SDS011;32703;49.182;9.042;2022-08-01T12:20:35;0.75;;;0.75;;
26102;SDS011;32703;49.182;9.042;2022-08-01T12:23:04;1.48;;;0.70;;
26102;SDS011;32703;49.182;9.042;2022-08-01T12:25:35;2.10;;;1.00;;
26102;SDS011;32703;49.182;9.042;2022-08-01T12:28:02;1.10;;;0.90;;
26102;SDS011;32703;49.182;9.042;2022-08-01T12:30:29;1.85;;;1.05;;
26102;SDS011;32703;49.182;9.042;2022-08-01T12:32:57;0.98;;;0.77;;
26102;SDS011;32703;49.182;9.042;2022-08-01T12:35:24;1.00;;;0.82;;
26102;SDS011;32703;49.182;9.042;2022-08-01T12:37:51;0.60;;;0.60;;
26102;SDS011;32703;49.182;9.042;2022-08-01T12:42:50;0.75;;;0.73;;
26102;SDS011;32703;49.182;9.042;2022-08-01T12:45:21;0.80;;;0.70;;
26102;SDS011;32703;49.182;9.042;2022-08-01T12:47:52;1.25;;;0.80;;
26102;SDS011;32703;49.182;9.042;2022-08-01T12:50:20;0.93;;;0.80;;
26102;SDS011;32703;49.182;9.042;2022-08-01T12:52:47;1.35;;;0.80;;
26102;SDS011;32703;49.182;9.042;2022-08-01T12:55:19;0.93;;;0.82;;
26102;SDS011;32703;49.182;9.042;2022-08-01T12:57:48;0.95;;;0.85;;
26102;SDS011;32703;49.182;9.042;2022-08-01T13:00:21;1.20;;;0.70;;
26102;SDS011;32703;49.182;9.042;2022-08-01T13:02:50;1.25;;;0.77;;
26102;SDS011;32703;49.182;9.042;2022-08-01T13:05:27;0.90;;;0.70;;
26102;SDS011;32703;49.182;9.042;2022-08-01T13:07:55;1.10;;;0.82;;
26102;SDS011;32703;49.182;9.042;2022-08-01T13:10:28;0.90;;;0.80;;
26102;SDS011;32703;49.182;9.042;2022-08-01T13:12:55;3.25;;;1.10;;
26102;SDS011;32703;49.182;9.042;2022-08-01T13:15:29;2.92;;;1.00;;
26102;SDS011;32703;49.182;9.042;2022-08-01T13:17:57;1.30;;;0.90;;
26102;SDS011;32703;49.182;9.042;2022-08-01T13:20:30;0.88;;;0.70;;
26102;SDS011;32703;49.182;9.042;2022-08-01T13:23:10;1.17;;;0.80;;
26102;SDS011;32703;49.182;9.042;2022-08-01T13:25:50;0.95;;;0.60;;
26102;SDS011;32703;49.182;9.042;2022-08-01T13:28:26;2.30;;;0.85;;
26102;SDS011;32703;49.182;9.042;2022-08-01T13:31:04;0.90;;;0.70;;
26102;SDS011;32703;49.182;9.042;2022-08-01T13:33:47;1.75;;;0.88;;
26102;SDS011;32703;49.182;9.042;2022-08-01T13:36:14;2.40;;;0.90;;
26102;SDS011;32703;49.182;9.042;2022-08-01T13:38:40;1.50;;;0.90;;
26102;SDS011;32703;49.182;9.042;2022-08-01T13:41:25;1.48;;;0.90;;
26102;SDS011;32703;49.182;9.042;2022-08-01T13:43:51;3.03;;;1.23;;
26102;SDS011;32703;49.182;9.042;2022-08-01T13:46:17;0.98;;;0.68;;
26102;SDS011;32703;49.182;9.042;2022-08-01T13:48:43;1.00;;;0.90;;
26102;SDS011;32703;49.182;9.042;2022-08-01T13:51:09;2.22;;;0.88;;
26102;SDS011;32703;49.182;9.042;2022-08-01T13:53:35;0.60;;;0.60;;
26102;SDS011;32703;49.182;9.042;2022-08-01T13:56:03;0.70;;;0.70;;
26102;SDS011;32703;49.182;9.042;2022-08-01T13:58:29;1.75;;;0.82;;
26102;SDS011;32703;49.182;9.042;2022-08-01T14:00:57;2.28;;;1.38;;
26102;SDS011;32703;49.182;9.042;2022-08-01T14:03:23;1.13;;;0.73;;
26102;SDS011;32703;49.182;9.042;2022-08-01T14:05:49;1.02;;;0.80;;
26102;SDS011;32703;49.182;9.042;2022-08-01T14:08:14;3.00;;;0.95;;
26102;SDS011;32703;49.182;9.042;2022-08-01T14:10:41;1.48;;;1.08;;
26102;SDS011;32703;49.182;9.042;2022-08-01T14:13:07;1.65;;;0.70;;
26102;SDS011;32703;49.182;9.042;2022-08-01T14:15:32;0.80;;;0.70;;
26102;SDS011;32703;49.182;9.042;2022-08-01T14:17:58;1.00;;;0.80;;
26102;SDS011;32703;49.182;9.042;2022-08-01T14:20:24;1.80;;;0.95;;
26102;SDS011;32703;49.182;9.042;2022-08-01T14:22:50;1.83;;;0.80;;
26102;SDS011;32703;49.182;9.042;2022-08-01T14:25:15;1.00;;;0.88;;
26102;SDS011;32703;49.182;9.042;2022-08-01T14:27:43;0.80;;;0.70;;
26102;SDS011;32703;49.182;9.042;2022-08-01T14:30:09;2.60;;;1.15;;
26102;SDS011;32703;49.182;9.042;2022-08-01T14:32:36;1.63;;;0.75;;
26102;SDS011;32703;49.182;9.042;2022-08-01T14:35:03;0.60;;;0.50;;
26102;SDS011;32703;49.182;9.042;2022-08-01T14:37:29;2.42;;;0.60;;
26102;SDS011;32703;49.182;9.042;2022-08-01T14:39:56;4.15;;;0.85;;
26102;SDS011;32703;49.182;9.042;2022-08-01T14:42:22;2.55;;;0.88;;
26102;SDS011;32703;49.182;9.042;2022-08-01T14:44:47;2.10;;;0.80;;
26102;SDS011;32703;49.182;9.042;2022-08-01T14:47:13;0.77;;;0.70;;
26102;SDS011;32703;49.182;9.042;2022-08-01T14:49:39;0.57;;;0.50;;
26102;SDS011;32703;49.182;9.042;2022-08-01T14:52:04;0.95;;;0.55;;
26102;SDS011;32703;49.182;9.042;2022-08-01T14:54:30;1.70;;;0.80;;
26102;SDS011;32703;49.182;9.042;2022-08-01T14:56:56;0.75;;;0.60;;
26102;SDS011;32703;49.182;9.042;2022-08-01T14:59:21;0.70;;;0.60;;
26102;SDS011;32703;49.182;9.042;2022-08-01T15:01:47;0.88;;;0.70;;
26102;SDS011;32703;49.182;9.042;2022-08-01T15:04:12;0.80;;;0.70;;
26102;SDS011;32703;49.182;9.042;2022-08-01T15:06:38;0.60;;;0.60;;
26102;SDS011;32703;49.182;9.042;2022-08-01T15:09:03;1.05;;;0.60;;
26102;SDS011;32703;49.182;9.042;2022-08-01T15:11:29;0.77;;;0.60;;
26102;SDS011;32703;49.182;9.042;2022-08-01T15:13:55;1.00;;;0.90;;
26102;SDS011;32703;49.182;9.042;2022-08-01T15:16:39;0.70;;;0.60;;
26102;SDS011;32703;49.182;9.042;2022-08-01T15:19:04;0.50;;;0.50;;
26102;SDS011;32703;49.182;9.042;2022-08-01T15:21:30;0.80;;;0.70;;
26102;SDS011;32703;49.182;9.042;2022-08-01T15:23:56;0.77;;;0.50;;
26102;SDS011;32703;49.182;9.042;2022-08-01T15:26:21;0.68;;;0.60;;
26102;SDS011;32703;49.182;9.042;2022-08-01T15:28:47;0.82;;;0.60;;
26102;SDS011;32703;49.182;9.042;2022-08-01T15:31:15;1.10;;;0.50;;
26102;SDS011;32703;49.182;9.042;2022-08-01T15:33:41;0.73;;;0.63;;